Time,TemperatureF,DewpointF,PressureIn,WindDirection,WindDirectionDegrees,WindSpeedMPH,WindSpeedGustMPH,Humidity,HourlyPrecipIn,Conditions,Clouds,dailyrainin,SoftwareType,DateUTC
2013-01-10 00:02:00,35.0,34.0,-100.00,North,0,7.0,12.0,98,-99.99,,,-99.99,,2013-01-10 09:02:00,
2013-01-10 00:12:00,35.0,34.0,-100.00,North,0,7.0,12.0,98,-99.99,,,-99.99,,2013-01-10 09:12:00,
2013-01-10 00:22:00,35.0,34.0,-100.00,North,0,13.0,18.0,96,-99.99,,,-99.99,,2013-01-10 09:22:00,
2013-01-10 00:32:00,35.0,34.0,-100.00,North,0,13.0,18.0,96,-99.99,,,-99.99,,2013-01-10 09:32:00,
2013-01-10 00:42:00,35.0,34.0,-100.00,North,0,13.0,18.0,96,-99.99,,,-99.99,,2013-01-10 09:42:00,
2013-01-10 00:52:00,36.0,33.0,-100.00,North,0,12.0,18.0,86,-99.99,,,-99.99,,2013-01-10 09:52:00,
2013-01-10 01:02:00,36.0,33.0,-100.00,North,0,12.0,18.0,86,-99.99,,,-99.99,,2013-01-10 10:02:00,
2013-01-10 01:12:00,36.0,33.0,-100.00,North,0,12.0,18.0,86,-99.99,,,-99.99,,2013-01-10 10:12:00,
2013-01-10 01:22:00,36.0,32.0,-100.00,North,0,2.0,8.0,85,-99.99,,,-99.99,,2013-01-10 10:22:00,
2013-01-10 01:32:00,36.0,32.0,-100.00,North,0,2.0,8.0,85,-99.99,,,-99.99,,2013-01-10 10:32:00,
2013-01-10 01:42:00,36.0,32.0,-100.00,North,0,2.0,8.0,85,-99.99,,,-99.99,,2013-01-10 10:42:00,
2013-01-10 01:52:00,36.0,33.0,-100.00,North,0,2.0,11.0,88,-99.99,,,-99.99,,2013-01-10 10:52:00,
2013-01-10 02:02:00,36.0,33.0,-100.00,North,0,2.0,11.0,88,-99.99,,,-99.99,,2013-01-10 11:02:00,
2013-01-10 02:12:00,36.0,33.0,-100.00,North,0,2.0,11.0,88,-99.99,,,-99.99,,2013-01-10 11:12:00,
2013-01-10 02:22:00,36.0,33.0,-100.00,North,0,8.0,11.0,87,-99.99,,,-99.99,,2013-01-10 11:22:00,
2013-01-10 02:32:00,36.0,33.0,-100.00,North,0,8.0,11.0,87,-99.99,,,-99.99,,2013-01-10 11:32:00,
2013-01-10 02:42:00,36.0,33.0,-100.00,North,0,8.0,11.0,87,-99.99,,,-99.99,,2013-01-10 11:42:00,
2013-01-10 02:52:00,36.0,32.0,-100.00,North,0,6.0,9.0,86,-99.99,,,-99.99,,2013-01-10 11:52:00,
2013-01-10 03:02:00,36.0,32.0,-100.00,North,0,6.0,9.0,86,-99.99,,,-99.99,,2013-01-10 12:02:00,
2013-01-10 03:12:00,36.0,32.0,-100.00,North,0,6.0,9.0,86,-99.99,,,-99.99,,2013-01-10 12:12:00,
2013-01-10 03:22:00,36.0,33.0,-100.00,North,0,6.0,9.0,87,-99.99,,,-99.99,,2013-01-10 12:22:00,
2013-01-10 03:32:00,36.0,33.0,-100.00,North,0,6.0,9.0,87,-99.99,,,-99.99,,2013-01-10 12:32:00,
2013-01-10 03:42:00,36.0,33.0,-100.00,North,0,6.0,9.0,87,-99.99,,,-99.99,,2013-01-10 12:42:00,
2013-01-10 03:52:00,36.0,33.0,-100.00,North,0,4.0,11.0,87,-99.99,,,-99.99,,2013-01-10 12:52:00,
2013-01-10 04:02:00,36.0,33.0,-100.00,North,0,4.0,11.0,87,-99.99,,,-99.99,,2013-01-10 13:02:00,
2013-01-10 04:12:00,36.0,33.0,-100.00,North,0,4.0,11.0,87,-99.99,,,-99.99,,2013-01-10 13:12:00,
2013-01-10 04:22:00,35.0,32.0,-100.00,North,0,7.0,7.0,89,-99.99,,,-99.99,,2013-01-10 13:22:00,
2013-01-10 04:32:00,35.0,32.0,-100.00,North,0,7.0,7.0,89,-99.99,,,-99.99,,2013-01-10 13:32:00,
2013-01-10 04:42:00,35.0,32.0,-100.00,North,0,7.0,7.0,89,-99.99,,,-99.99,,2013-01-10 13:42:00,
2013-01-10 04:52:00,33.0,31.0,-100.00,North,0,2.0,4.0,90,-99.99,,,-99.99,,2013-01-10 13:52:00,
2013-01-10 05:02:00,33.0,31.0,-100.00,North,0,2.0,4.0,90,-99.99,,,-99.99,,2013-01-10 14:02:00,
2013-01-10 05:12:00,33.0,31.0,-100.00,North,0,2.0,4.0,90,-99.99,,,-99.99,,2013-01-10 14:12:00,
2013-01-10 05:22:00,33.0,31.0,-100.00,North,0,3.0,6.0,92,-99.99,,,-99.99,,2013-01-10 14:22:00,
2013-01-10 05:32:00,33.0,31.0,-100.00,North,0,3.0,6.0,92,-99.99,,,-99.99,,2013-01-10 14:32:00,
2013-01-10 05:43:00,33.0,31.0,-100.00,North,0,3.0,6.0,92,-99.99,,,-99.99,,2013-01-10 14:43:00,
2013-01-10 05:52:00,34.0,32.0,-100.00,North,0,1.0,4.0,93,-99.99,,,-99.99,,2013-01-10 14:52:00,
2013-01-10 06:03:00,34.0,32.0,-100.00,North,0,1.0,4.0,93,-99.99,,,-99.99,,2013-01-10 15:03:00,
2013-01-10 06:12:00,34.0,32.0,-100.00,North,0,1.0,4.0,93,-99.99,,,-99.99,,2013-01-10 15:12:00,
2013-01-10 06:22:00,34.0,32.0,-100.00,North,0,0.0,2.0,91,-99.99,,,-99.99,,2013-01-10 15:22:00,
2013-01-10 06:32:00,34.0,32.0,-100.00,North,0,0.0,2.0,91,-99.99,,,-99.99,,2013-01-10 15:32:00,
2013-01-10 06:43:00,34.0,32.0,-100.00,North,0,0.0,2.0,91,-99.99,,,-99.99,,2013-01-10 15:43:00,
2013-01-10 06:53:00,33.0,31.0,-100.00,North,0,1.0,3.0,90,-99.99,,,-99.99,,2013-01-10 15:53:00,
2013-01-10 07:02:00,33.0,31.0,-100.00,North,0,1.0,3.0,90,-99.99,,,-99.99,,2013-01-10 16:02:00,
2013-01-10 07:12:00,33.0,31.0,-100.00,North,0,1.0,3.0,90,-99.99,,,-99.99,,2013-01-10 16:12:00,
2013-01-10 07:20:00,33.0,30.0,-100.00,North,0,6.0,9.0,89,-99.99,,,-99.99,,2013-01-10 16:20:00,
2013-01-10 07:22:00,33.0,30.0,-100.00,North,0,2.0,2.0,91,-99.99,,,-99.99,,2013-01-10 16:22:00,
2013-01-10 07:33:00,33.0,30.0,-100.00,North,0,2.0,2.0,91,-99.99,,,-99.99,,2013-01-10 16:33:00,
2013-01-10 07:42:00,33.0,30.0,-100.00,North,0,2.0,2.0,91,-99.99,,,-99.99,,2013-01-10 16:42:00,
2013-01-10 07:52:00,33.0,30.0,-100.00,North,0,6.0,9.0,89,-99.99,,,-99.99,,2013-01-10 16:52:00,
2013-01-10 08:02:00,33.0,30.0,-100.00,North,0,6.0,9.0,89,-99.99,,,-99.99,,2013-01-10 17:02:00,
2013-01-10 08:12:00,33.0,30.0,-100.00,North,0,6.0,9.0,89,-99.99,,,-99.99,,2013-01-10 17:12:00,
2013-01-10 09:23:00,33.0,31.0,-100.00,North,0,4.0,6.0,92,-99.99,,,-99.99,,2013-01-10 18:23:00,
2013-01-10 09:33:00,33.0,31.0,-100.00,North,0,4.0,6.0,92,-99.99,,,-99.99,,2013-01-10 18:33:00,
2013-01-10 09:43:00,33.0,31.0,-100.00,North,0,4.0,6.0,92,-99.99,,,-99.99,,2013-01-10 18:43:00,
2013-01-10 09:50:00,33.0,31.0,-100.00,North,0,1.0,2.0,93,-99.99,,,-99.99,,2013-01-10 18:50:00,
2013-01-10 09:52:00,33.0,32.0,-100.00,North,0,2.0,3.0,93,-99.99,,,-99.99,,2013-01-10 18:52:00,
2013-01-10 10:02:00,33.0,32.0,-100.00,North,0,2.0,3.0,93,-99.99,,,-99.99,,2013-01-10 19:02:00,
2013-01-10 10:12:00,33.0,32.0,-100.00,North,0,2.0,3.0,93,-99.99,,,-99.99,,2013-01-10 19:12:00,
2013-01-10 10:22:00,33.0,31.0,-100.00,North,0,1.0,2.0,93,-99.99,,,-99.99,,2013-01-10 19:22:00,
2013-01-10 10:32:00,33.0,31.0,-100.00,North,0,1.0,2.0,93,-99.99,,,-99.99,,2013-01-10 19:32:00,
2013-01-10 10:43:00,33.0,31.0,-100.00,North,0,1.0,2.0,93,-99.99,,,-99.99,,2013-01-10 19:43:00,
2013-01-10 11:23:00,34.0,32.0,-100.00,North,0,1.0,4.0,93,-99.99,,,-99.99,,2013-01-10 20:23:00,
2013-01-10 11:32:00,34.0,32.0,-100.00,North,0,1.0,4.0,93,-99.99,,,-99.99,,2013-01-10 20:32:00,
2013-01-10 11:42:00,34.0,32.0,-100.00,North,0,1.0,4.0,93,-99.99,,,-99.99,,2013-01-10 20:42:00,
2013-01-10 11:53:00,35.0,33.0,-100.00,North,0,5.0,6.0,92,-99.99,,,-99.99,,2013-01-10 20:53:00,
2013-01-10 12:03:00,35.0,33.0,-100.00,North,0,5.0,6.0,92,-99.99,,,-99.99,,2013-01-10 21:03:00,
2013-01-10 12:12:00,35.0,33.0,-100.00,North,0,5.0,6.0,92,-99.99,,,-99.99,,2013-01-10 21:12:00,
2013-01-10 12:22:00,35.0,33.0,-100.00,North,0,1.0,4.0,92,-99.99,,,-99.99,,2013-01-10 21:22:00,
2013-01-10 12:33:00,35.0,33.0,-100.00,North,0,1.0,4.0,92,-99.99,,,-99.99,,2013-01-10 21:33:00,
2013-01-10 12:42:00,35.0,33.0,-100.00,North,0,1.0,4.0,92,-99.99,,,-99.99,,2013-01-10 21:42:00,
2013-01-10 12:52:00,34.0,32.0,-100.00,North,0,7.0,12.0,94,-99.99,,,-99.99,,2013-01-10 21:52:00,
2013-01-10 13:03:00,34.0,32.0,-100.00,North,0,7.0,12.0,94,-99.99,,,-99.99,,2013-01-10 22:03:00,
2013-01-10 13:12:00,34.0,32.0,-100.00,North,0,7.0,12.0,94,-99.99,,,-99.99,,2013-01-10 22:12:00,
2013-01-10 13:23:00,34.0,33.0,-100.00,North,0,3.0,7.0,96,-99.99,,,-99.99,,2013-01-10 22:23:00,
2013-01-10 13:32:00,34.0,33.0,-100.00,North,0,3.0,7.0,96,-99.99,,,-99.99,,2013-01-10 22:32:00,
2013-01-10 13:43:00,34.0,33.0,-100.00,North,0,3.0,7.0,96,-99.99,,,-99.99,,2013-01-10 22:43:00,
2013-01-10 14:02:00,35.0,34.0,-100.00,North,0,2.0,3.0,96,-99.99,,,-99.99,,2013-01-10 23:02:00,
2013-01-10 14:12:00,35.0,34.0,-100.00,North,0,2.0,3.0,96,-99.99,,,-99.99,,2013-01-10 23:12:00,
2013-01-10 14:22:00,34.0,34.0,-100.00,North,0,4.0,6.0,97,-99.99,,,-99.99,,2013-01-10 23:22:00,
2013-01-10 14:33:00,34.0,34.0,-100.00,North,0,4.0,6.0,97,-99.99,,,-99.99,,2013-01-10 23:33:00,
2013-01-10 14:42:00,34.0,34.0,-100.00,North,0,4.0,6.0,97,-99.99,,,-99.99,,2013-01-10 23:42:00,
2013-01-10 14:52:00,34.0,34.0,-100.00,North,0,4.0,5.0,98,-99.99,,,-99.99,,2013-01-10 23:52:00,
2013-01-10 15:02:00,34.0,34.0,-100.00,North,0,4.0,5.0,98,-99.99,,,-99.99,,2013-01-11 00:02:00,
2013-01-10 15:12:00,34.0,34.0,-100.00,North,0,4.0,5.0,98,-99.99,,,-99.99,,2013-01-11 00:12:00,
2013-01-10 15:22:00,34.0,34.0,-100.00,North,0,4.0,9.0,98,-99.99,,,-99.99,,2013-01-11 00:22:00,
2013-01-10 15:33:00,34.0,34.0,-100.00,North,0,4.0,9.0,98,-99.99,,,-99.99,,2013-01-11 00:33:00,
2013-01-10 15:42:00,34.0,34.0,-100.00,North,0,4.0,9.0,98,-99.99,,,-99.99,,2013-01-11 00:42:00,
2013-01-10 15:52:00,34.0,34.0,-100.00,North,0,4.0,9.0,99,-99.99,,,-99.99,,2013-01-11 00:52:00,
2013-01-10 16:02:00,34.0,34.0,-100.00,North,0,4.0,9.0,99,-99.99,,,-99.99,,2013-01-11 01:02:00,
2013-01-10 16:12:00,34.0,34.0,-100.00,North,0,4.0,9.0,99,-99.99,,,-99.99,,2013-01-11 01:12:00,
2013-01-10 16:22:00,34.0,34.0,-100.00,North,0,6.0,11.0,99,-99.99,,,-99.99,,2013-01-11 01:22:00,
2013-01-10 16:33:00,34.0,34.0,-100.00,North,0,6.0,11.0,99,-99.99,,,-99.99,,2013-01-11 01:33:00,
2013-01-10 16:42:00,34.0,34.0,-100.00,North,0,6.0,11.0,99,-99.99,,,-99.99,,2013-01-11 01:42:00,
2013-01-10 16:52:00,34.0,34.0,-100.00,North,0,2.0,5.0,99,-99.99,,,-99.99,,2013-01-11 01:52:00,
2013-01-10 17:02:00,34.0,34.0,-100.00,North,0,2.0,5.0,99,-99.99,,,-99.99,,2013-01-11 02:02:00,
2013-01-10 17:12:00,34.0,34.0,-100.00,North,0,2.0,5.0,99,-99.99,,,-99.99,,2013-01-11 02:12:00,
2013-01-10 17:22:00,34.0,33.0,-100.00,North,0,1.0,3.0,99,-99.99,,,-99.99,,2013-01-11 02:22:00,
2013-01-10 17:33:00,34.0,33.0,-100.00,North,0,1.0,3.0,99,-99.99,,,-99.99,,2013-01-11 02:33:00,
2013-01-10 17:43:00,34.0,33.0,-100.00,North,0,1.0,3.0,99,-99.99,,,-99.99,,2013-01-11 02:43:00,
2013-01-10 17:53:00,33.0,33.0,-100.00,North,0,0.0,1.0,99,-99.99,,,-99.99,,2013-01-11 02:53:00,
2013-01-10 18:02:00,33.0,33.0,-100.00,North,0,0.0,1.0,99,-99.99,,,-99.99,,2013-01-11 03:02:00,
2013-01-10 18:12:00,33.0,33.0,-100.00,North,0,0.0,1.0,99,-99.99,,,-99.99,,2013-01-11 03:12:00,
2013-01-10 18:22:00,33.0,33.0,-100.00,North,0,1.0,2.0,99,-99.99,,,-99.99,,2013-01-11 03:22:00,
2013-01-10 18:33:00,33.0,33.0,-100.00,North,0,1.0,2.0,99,-99.99,,,-99.99,,2013-01-11 03:33:00,
2013-01-10 18:42:00,33.0,33.0,-100.00,North,0,1.0,2.0,99,-99.99,,,-99.99,,2013-01-11 03:42:00,
2013-01-10 18:52:00,33.0,33.0,-100.00,North,0,6.0,7.0,99,-99.99,,,-99.99,,2013-01-11 03:52:00,
2013-01-10 19:02:00,33.0,33.0,-100.00,North,0,6.0,7.0,99,-99.99,,,-99.99,,2013-01-11 04:02:00,
2013-01-10 19:12:00,33.0,33.0,-100.00,North,0,6.0,7.0,99,-99.99,,,-99.99,,2013-01-11 04:12:00,
2013-01-10 19:22:00,33.0,33.0,-100.00,North,0,3.0,12.0,99,-99.99,,,-99.99,,2013-01-11 04:22:00,
2013-01-10 19:32:00,33.0,33.0,-100.00,North,0,3.0,12.0,99,-99.99,,,-99.99,,2013-01-11 04:32:00,
2013-01-10 19:42:00,33.0,33.0,-100.00,North,0,3.0,12.0,99,-99.99,,,-99.99,,2013-01-11 04:42:00,
2013-01-10 19:52:00,34.0,33.0,-100.00,North,0,3.0,7.0,97,-99.99,,,-99.99,,2013-01-11 04:52:00,
2013-01-10 20:03:00,34.0,33.0,-100.00,North,0,3.0,7.0,97,-99.99,,,-99.99,,2013-01-11 05:03:00,
2013-01-10 20:12:00,34.0,33.0,-100.00,North,0,3.0,7.0,97,-99.99,,,-99.99,,2013-01-11 05:12:00,
2013-01-10 20:22:00,34.0,33.0,-100.00,North,0,4.0,12.0,95,-99.99,,,-99.99,,2013-01-11 05:22:00,
2013-01-10 20:33:00,34.0,33.0,-100.00,North,0,4.0,12.0,95,-99.99,,,-99.99,,2013-01-11 05:33:00,
2013-01-10 20:42:00,34.0,33.0,-100.00,North,0,4.0,12.0,95,-99.99,,,-99.99,,2013-01-11 05:42:00,
2013-01-10 20:52:00,35.0,33.0,-100.00,North,0,3.0,11.0,94,-99.99,,,-99.99,,2013-01-11 05:52:00,
2013-01-10 21:02:00,35.0,33.0,-100.00,North,0,3.0,11.0,94,-99.99,,,-99.99,,2013-01-11 06:02:00,
2013-01-10 21:12:00,35.0,33.0,-100.00,North,0,3.0,11.0,94,-99.99,,,-99.99,,2013-01-11 06:12:00,
2013-01-10 21:22:00,35.0,33.0,-100.00,North,0,7.0,13.0,90,-99.99,,,-99.99,,2013-01-11 06:22:00,
2013-01-10 21:32:00,35.0,33.0,-100.00,North,0,7.0,13.0,90,-99.99,,,-99.99,,2013-01-11 06:32:00,
2013-01-10 21:42:00,35.0,33.0,-100.00,North,0,7.0,13.0,90,-99.99,,,-99.99,,2013-01-11 06:42:00,
2013-01-10 21:52:00,36.0,33.0,-100.00,North,0,5.0,17.0,91,-99.99,,,-99.99,,2013-01-11 06:52:00,
2013-01-10 22:02:00,36.0,33.0,-100.00,North,0,5.0,17.0,91,-99.99,,,-99.99,,2013-01-11 07:02:00,
2013-01-10 22:11:00,36.0,33.0,-100.00,North,0,5.0,17.0,91,-99.99,,,-99.99,,2013-01-11 07:11:00,
2013-01-10 22:22:00,36.0,34.0,-100.00,North,0,7.0,22.0,92,-99.99,,,-99.99,,2013-01-11 07:22:00,
2013-01-10 22:32:00,36.0,34.0,-100.00,North,0,7.0,22.0,92,-99.99,,,-99.99,,2013-01-11 07:32:00,
2013-01-10 22:42:00,36.0,34.0,-100.00,North,0,7.0,22.0,92,-99.99,,,-99.99,,2013-01-11 07:42:00,
2013-01-10 22:52:00,36.0,34.0,-100.00,North,0,4.0,11.0,94,-99.99,,,-99.99,,2013-01-11 07:52:00,
2013-01-10 23:02:00,36.0,34.0,-100.00,North,0,4.0,11.0,94,-99.99,,,-99.99,,2013-01-11 08:02:00,
2013-01-10 23:12:00,36.0,34.0,-100.00,North,0,4.0,11.0,94,-99.99,,,-99.99,,2013-01-11 08:12:00,
2013-01-10 23:22:00,34.0,33.0,-100.00,North,0,3.0,17.0,96,-99.99,,,-99.99,,2013-01-11 08:22:00,
2013-01-10 23:32:00,34.0,33.0,-100.00,North,0,3.0,17.0,96,-99.99,,,-99.99,,2013-01-11 08:32:00,
2013-01-10 23:42:00,34.0,33.0,-100.00,North,0,3.0,17.0,96,-99.99,,,-99.99,,2013-01-11 08:42:00,
2013-01-10 23:52:00,33.0,32.0,-100.00,North,0,6.0,7.0,97,-99.99,,,-99.99,,2013-01-11 08:52:00,